Estación Meteorológica Peña el Pijo (Robertgarden) [ 12/17/17 01:27:37 CET ]

Fecha Hora Presion(HPa) Temp (°C) Humedad % Rocio (°C) Viento ( m/s) Direccion Lluvia 1Hora(mm) Lluvia 24H(mm) LLuvia Total(mm)
2017-Oct-09 01:01:38 1013.700 11.3 72 6.4         1457.65
2017-Oct-09 02:01:49 1013.400 10.4 73 5.8         1457.65
2017-Oct-09 03:01:40 1013.200 10.0 76 5.9         1457.65
2017-Oct-09 04:10:04 1012.800 9.8 76 5.7         1457.65
2017-Oct-09 05:01:44 1012.700 9.4 76 5.3         1457.65
2017-Oct-09 06:01:40 1012.600 8.6 76 4.6         1457.65
2017-Oct-09 07:01:36 1012.800 7.2 76 3.2         1457.65
2017-Oct-09 08:01:36 1013.000 7.8 75 3.6         1457.65
2017-Oct-09 09:01:47 1013.300 7.6 75 3.4         1457.65
2017-Oct-09 10:02:04 1013.500 15.3 65 8.8         1457.65
2017-Oct-09 11:01:39 1013.400 22.9 42 9.3         1457.65
2017-Oct-09 12:01:43 1013.500 27.9 29 8.1         1457.65
2017-Oct-09 13:01:38 1013.200 28.8 24 6.0 1.4 S     1457.65
2017-Oct-09 14:01:47 1012.400 28.8 22 4.8         1457.65
2017-Oct-09 15:01:42 1011.900 29.0 20 3.8         1457.65
2017-Oct-09 16:01:40 1011.400 29.9 19 3.6         1457.65
2017-Oct-09 17:01:56 1011.000 28.9 19 2.8         1457.65
2017-Oct-09 18:01:53 1011.500 26.0 31 7.5 2.6 SSE     1457.65
2017-Oct-09 19:02:01 1011.600 22.3 43 9.1         1457.65
2017-Oct-09 20:01:51 1012.300 19.9 49 8.9         1457.65
2017-Oct-09 21:01:49 1012.600 16.1 58 7.8         1457.65
2017-Oct-09 22:01:42 1013.200 13.6 65 7.1         1457.65
2017-Oct-09 23:01:43 1013.500 12.4 68 6.6         1457.65

Temperatura Máxima:29°    Temperatura Mínima:
Presión Máxima:1013.700 Hpa    Presión Mínima:1011.000 Hpa


Volver